createdAt,value
2018-04-14T00:00:36.669Z,0
2018-04-14T00:01:58.477Z,0
2018-04-14T00:03:20.291Z,0
2018-04-14T00:04:41.590Z,0
2018-04-14T00:06:03.412Z,0
2018-04-14T00:07:25.228Z,0
2018-04-14T00:08:47.310Z,0
2018-04-14T00:10:08.847Z,0
2018-04-14T00:11:30.504Z,0
2018-04-14T00:12:52.308Z,0
2018-04-14T00:14:14.370Z,0
2018-04-14T00:15:35.898Z,0
2018-04-14T00:16:57.432Z,0
2018-04-14T00:18:19.505Z,0
2018-04-14T00:19:41.315Z,0
2018-04-14T00:21:03.385Z,0
2018-04-14T00:22:25.181Z,0
2018-04-14T00:23:47.233Z,0
2018-04-14T00:25:09.279Z,0
2018-04-14T00:26:31.091Z,0
2018-04-14T00:27:53.143Z,0
2018-04-14T00:29:14.977Z,0
2018-04-14T00:30:36.794Z,0
2018-04-14T00:31:58.852Z,0
2018-04-14T00:33:20.653Z,0
2018-04-14T00:34:42.474Z,0
2018-04-14T00:36:04.282Z,0
2018-04-14T00:37:26.340Z,0
2018-04-14T00:38:47.889Z,0
2018-04-14T00:40:09.682Z,0
2018-04-14T00:41:31.223Z,0
2018-04-14T00:42:53.283Z,0
2018-04-14T00:44:15.079Z,0
2018-04-14T00:45:37.180Z,0
2018-04-14T00:46:58.725Z,0
2018-04-14T00:48:20.526Z,0
2018-04-14T00:49:41.813Z,0
2018-04-14T00:51:03.875Z,0
2018-04-14T00:52:25.400Z,0
2018-04-14T00:53:47.191Z,0
2018-04-14T00:55:09.255Z,0
2018-04-14T00:56:31.318Z,0
2018-04-14T00:57:53.367Z,0
2018-04-14T00:59:14.641Z,0
2018-04-14T01:00:36.693Z,0
2018-04-14T01:01:58.483Z,0
2018-04-14T01:03:20.534Z,0
2018-04-14T01:04:42.600Z,0
2018-04-14T01:06:04.674Z,0
2018-04-14T01:07:26.490Z,0
2018-04-14T01:08:48.534Z,0
2018-04-14T01:10:10.329Z,0
2018-04-14T01:11:32.126Z,0
2018-04-14T01:12:54.181Z,0
2018-04-14T01:14:16.244Z,0
2018-04-14T01:15:38.313Z,0
2018-04-14T01:16:59.856Z,0
2018-04-14T01:18:21.392Z,0
2018-04-14T01:19:42.943Z,0
2018-04-14T01:21:04.732Z,0
2018-04-14T01:22:26.818Z,0
2018-04-14T01:23:48.618Z,0
2018-04-14T01:25:10.423Z,0
2018-04-14T01:26:31.968Z,0
2018-04-14T01:27:53.759Z,0
2018-04-14T01:29:17.349Z,0
2018-04-14T01:30:39.146Z,0
2018-04-14T01:32:00.951Z,0
2018-04-14T01:33:22.738Z,0
2018-04-14T01:34:44.804Z,0
2018-04-14T01:36:06.605Z,0
2018-04-14T01:37:28.125Z,0
2018-04-14T01:38:49.939Z,0
2018-04-14T01:40:11.739Z,0
2018-04-14T01:41:33.794Z,0
2018-04-14T01:42:55.582Z,0
2018-04-14T01:44:17.369Z,0
2018-04-14T01:45:39.471Z,0
2018-04-14T01:47:01.264Z,0
2018-04-14T01:48:23.071Z,0
2018-04-14T01:49:44.865Z,0
2018-04-14T01:51:06.921Z,0
2018-04-14T01:52:28.981Z,0
2018-04-14T01:53:50.530Z,0
2018-04-14T01:55:12.053Z,0
2018-04-14T01:56:33.853Z,0
2018-04-14T01:57:55.902Z,0
2018-04-14T01:59:17.445Z,0
2018-04-14T02:00:39.234Z,0
2018-04-14T02:02:00.783Z,0
2018-04-14T02:03:22.841Z,0
2018-04-14T02:04:44.897Z,0
2018-04-14T02:06:06.438Z,0
2018-04-14T02:07:27.965Z,0
2018-04-14T02:08:49.752Z,0
2018-04-14T02:10:11.541Z,0
2018-04-14T02:11:33.587Z,0
2018-04-14T02:12:55.635Z,0
2018-04-14T02:14:17.700Z,0
2018-04-14T02:15:39.493Z,0
2018-04-14T02:17:01.294Z,0
2018-04-14T02:18:23.092Z,0
2018-04-14T02:19:45.156Z,0
2018-04-14T02:21:07.231Z,0
2018-04-14T02:22:29.034Z,0
2018-04-14T02:23:50.819Z,0
2018-04-14T02:25:12.612Z,0
2018-04-14T02:26:34.401Z,0
2018-04-14T02:27:55.668Z,0
2018-04-14T02:29:17.508Z,0
2018-04-14T02:30:39.304Z,0
2018-04-14T02:32:01.119Z,0
2018-04-14T02:33:23.174Z,0
2018-04-14T02:34:44.979Z,0
2018-04-14T02:36:07.112Z,0
2018-04-14T02:37:28.921Z,0
2018-04-14T02:38:50.989Z,0
2018-04-14T02:40:12.798Z,0
2018-04-14T02:41:34.864Z,0
2018-04-14T02:42:56.916Z,0
2018-04-14T02:44:18.979Z,0
2018-04-14T02:45:40.253Z,0
2018-04-14T02:47:01.806Z,0
2018-04-14T02:48:23.604Z,0
2018-04-14T02:49:45.153Z,0
2018-04-14T02:51:06.978Z,0
2018-04-14T02:52:28.842Z,0
2018-04-14T02:53:50.905Z,0
2018-04-14T02:55:12.709Z,0
2018-04-14T02:56:34.761Z,0
2018-04-14T02:57:56.824Z,0
2018-04-14T02:59:18.638Z,0
2018-04-14T03:00:40.189Z,0
2018-04-14T03:02:02.264Z,0
2018-04-14T03:03:24.358Z,0
2018-04-14T03:04:46.146Z,0
2018-04-14T03:06:07.714Z,0
2018-04-14T03:07:29.517Z,0
2018-04-14T03:08:51.042Z,0
2018-04-14T03:10:13.131Z,0
2018-04-14T03:11:35.207Z,0
2018-04-14T03:12:57.011Z,0
2018-04-14T03:14:18.803Z,0
2018-04-14T03:15:40.607Z,0
2018-04-14T03:17:02.400Z,0
2018-04-14T03:18:24.454Z,0
2018-04-14T03:19:46.555Z,0
2018-04-14T03:21:08.619Z,0
2018-04-14T03:22:30.682Z,0
2018-04-14T03:23:52.465Z,0
2018-04-14T03:25:14.522Z,0
2018-04-14T03:26:36.580Z,0
2018-04-14T03:27:57.841Z,0
2018-04-14T03:29:19.634Z,0
2018-04-14T03:30:41.710Z,0
2018-04-14T03:32:03.524Z,0
2018-04-14T03:33:25.054Z,0
2018-04-14T03:34:46.852Z,0
2018-04-14T03:36:08.645Z,0
2018-04-14T03:37:30.729Z,0
2018-04-14T03:38:52.799Z,0
2018-04-14T03:40:14.343Z,0
2018-04-14T03:41:36.391Z,0
2018-04-14T03:42:58.175Z,0
2018-04-14T03:44:19.753Z,0
2018-04-14T03:45:41.562Z,0
2018-04-14T03:47:03.376Z,0
2018-04-14T03:48:25.441Z,0
2018-04-14T03:49:46.967Z,0
2018-04-14T03:51:08.794Z,0
2018-04-14T03:52:30.605Z,0
2018-04-14T03:53:52.132Z,0
2018-04-14T03:55:13.945Z,0
2018-04-14T03:56:35.995Z,0
2018-04-14T03:57:57.526Z,0
2018-04-14T03:59:19.578Z,0
2018-04-14T04:00:41.360Z,0
2018-04-14T04:02:02.893Z,0
2018-04-14T04:03:24.964Z,0
2018-04-14T04:04:46.771Z,0
2018-04-14T04:06:08.579Z,0
2018-04-14T04:07:30.655Z,0
2018-04-14T04:08:52.725Z,0
2018-04-14T04:10:14.765Z,0
2018-04-14T04:11:36.308Z,0
2018-04-14T04:12:58.114Z,0
2018-04-14T04:14:20.184Z,0
2018-04-14T04:15:41.835Z,0
2018-04-14T04:17:03.376Z,0
2018-04-14T04:18:25.440Z,0
2018-04-14T04:19:47.345Z,0
2018-04-14T04:21:09.416Z,0
2018-04-14T04:22:30.956Z,0
2018-04-14T04:23:53.005Z,0
2018-04-14T04:25:14.545Z,0
2018-04-14T04:26:36.624Z,0
2018-04-14T04:27:58.691Z,0
2018-04-14T04:29:20.484Z,0
2018-04-14T04:30:42.544Z,0
2018-04-14T04:32:04.602Z,0
2018-04-14T04:33:26.666Z,0
2018-04-14T04:34:48.455Z,0
2018-04-14T04:36:10.496Z,0
2018-04-14T04:37:32.048Z,0
2018-04-14T04:38:54.099Z,0
2018-04-14T04:40:15.630Z,0
2018-04-14T04:41:37.693Z,0
2018-04-14T04:42:59.736Z,0
2018-04-14T04:44:21.526Z,0
2018-04-14T04:45:43.330Z,0
2018-04-14T04:47:05.125Z,0
2018-04-14T04:48:26.669Z,0
2018-04-14T04:49:48.200Z,0
2018-04-14T04:51:10.256Z,0
2018-04-14T04:52:32.296Z,0
2018-04-14T04:53:54.348Z,0
2018-04-14T04:55:16.147Z,5
2018-04-14T04:56:38.204Z,5
2018-04-14T04:58:00.252Z,5
2018-04-14T04:59:22.317Z,5
2018-04-14T05:00:44.125Z,5
2018-04-14T05:02:05.659Z,5
2018-04-14T05:03:27.483Z,10
2018-04-14T05:04:49.545Z,10
2018-04-14T05:06:11.632Z,15
2018-04-14T05:07:33.720Z,10
2018-04-14T05:08:55.519Z,15
2018-04-14T05:10:17.315Z,15
2018-04-14T05:11:38.587Z,15
2018-04-14T05:13:00.660Z,15
2018-04-14T05:14:22.486Z,15
2018-04-14T05:15:44.564Z,15
2018-04-14T05:17:06.644Z,15
2018-04-14T05:18:28.172Z,20
2018-04-14T05:19:49.774Z,20
2018-04-14T05:21:11.577Z,20
2018-04-14T05:22:33.692Z,20
2018-04-14T05:23:55.749Z,20
2018-04-14T05:25:17.838Z,20
2018-04-14T05:26:39.612Z,20
2018-04-14T05:28:01.397Z,20
2018-04-14T05:29:23.463Z,15
2018-04-14T05:30:45.532Z,20
2018-04-14T05:32:07.596Z,20
2018-04-14T05:33:29.384Z,20
2018-04-14T05:34:51.205Z,25
2018-04-14T05:36:13.013Z,25
2018-04-14T05:37:34.988Z,25
2018-04-14T05:38:57.087Z,30
2018-04-14T05:40:19.142Z,25
2018-04-14T05:41:41.190Z,25
2018-04-14T05:43:03.303Z,30
2018-04-14T05:44:24.862Z,30
2018-04-14T05:45:46.691Z,35
2018-04-14T05:47:08.496Z,30
2018-04-14T05:48:30.305Z,25
2018-04-14T05:49:52.118Z,30
2018-04-14T05:51:13.949Z,30
2018-04-14T05:52:35.763Z,30
2018-04-14T05:53:57.880Z,35
2018-04-14T05:55:19.964Z,30
2018-04-14T05:56:41.779Z,30
2018-04-14T05:58:03.601Z,30
2018-04-14T05:59:25.709Z,30
2018-04-14T06:00:47.770Z,35
2018-04-14T06:02:09.323Z,35
2018-04-14T06:03:31.129Z,35
2018-04-14T06:04:52.925Z,40
2018-04-14T06:06:14.733Z,40
2018-04-14T06:07:36.281Z,35
2018-04-14T06:08:58.383Z,40
2018-04-14T06:10:20.471Z,45
2018-04-14T06:11:42.006Z,40
2018-04-14T06:13:04.061Z,35
2018-04-14T06:14:26.165Z,45
2018-04-14T06:15:47.960Z,45
2018-04-14T06:17:10.035Z,45
2018-04-14T06:18:32.104Z,50
2018-04-14T06:19:53.643Z,45
2018-04-14T06:21:15.205Z,50
2018-04-14T06:22:37.603Z,40
2018-04-14T06:23:59.416Z,50
2018-04-14T06:25:21.264Z,45
2018-04-14T06:26:43.324Z,45
2018-04-14T06:28:05.135Z,45
2018-04-14T06:29:27.185Z,45
2018-04-14T06:30:49.022Z,40
2018-04-14T06:32:11.123Z,45
2018-04-14T06:33:32.660Z,55
2018-04-14T06:34:54.730Z,55
2018-04-14T06:36:16.590Z,55
2018-04-14T06:37:38.666Z,50
2018-04-14T06:39:00.461Z,60
2018-04-14T06:40:22.538Z,60
2018-04-14T06:41:44.606Z,65
2018-04-14T06:43:06.414Z,65
2018-04-14T06:44:28.281Z,60
2018-04-14T06:45:50.103Z,60
2018-04-14T06:47:11.901Z,60
2018-04-14T06:48:33.704Z,65
2018-04-14T06:49:55.790Z,65
2018-04-14T06:51:17.864Z,55
2018-04-14T06:52:39.977Z,70
2018-04-14T06:54:01.821Z,70
2018-04-14T06:55:23.632Z,70
2018-04-14T06:56:45.180Z,75
2018-04-14T06:58:06.744Z,85
2018-04-14T06:59:28.855Z,80
2018-04-14T07:00:50.968Z,110
2018-04-14T07:02:13.057Z,100
2018-04-14T07:03:35.134Z,110
2018-04-14T07:04:57.054Z,95
2018-04-14T07:06:18.881Z,85
2018-04-14T07:07:40.724Z,90
2018-04-14T07:09:02.814Z,80
2018-04-14T07:10:24.876Z,70
2018-04-14T07:11:46.690Z,70
2018-04-14T07:13:08.512Z,65
2018-04-14T07:14:30.586Z,80
2018-04-14T07:15:52.680Z,65
2018-04-14T07:17:14.748Z,65
2018-04-14T07:18:36.573Z,80
2018-04-14T07:19:58.374Z,65
2018-04-14T07:21:20.785Z,80
2018-04-14T07:22:42.917Z,70
2018-04-14T07:24:05.028Z,90
2018-04-14T07:25:27.108Z,85
2018-04-14T07:26:49.002Z,80
2018-04-14T07:28:11.174Z,75
2018-04-14T07:29:32.997Z,80
2018-04-14T07:30:54.815Z,70
2018-04-14T07:32:16.635Z,75
2018-04-14T07:33:38.699Z,80
2018-04-14T07:35:00.760Z,90
2018-04-14T07:36:22.050Z,100
2018-04-14T07:37:43.957Z,110
2018-04-14T07:39:05.763Z,160
2018-04-14T07:40:27.575Z,170
2018-04-14T07:41:49.390Z,170
2018-04-14T07:43:11.200Z,180
2018-04-14T07:44:33.303Z,165
2018-04-14T07:45:54.876Z,195
2018-04-14T07:47:16.943Z,175
2018-04-14T07:48:38.764Z,225
2018-04-14T07:50:00.580Z,210
2018-04-14T07:51:22.412Z,175
2018-04-14T07:52:44.511Z,145
2018-04-14T07:54:06.630Z,120
2018-04-14T07:55:28.773Z,135
2018-04-14T07:56:50.867Z,105
2018-04-14T07:58:12.960Z,110
2018-04-14T07:59:35.058Z,120
2018-04-14T08:00:56.894Z,105
2018-04-14T08:02:18.712Z,95
2018-04-14T08:03:40.544Z,95
2018-04-14T08:05:02.642Z,95
2018-04-14T08:06:24.502Z,85
2018-04-14T08:07:46.612Z,85
2018-04-14T08:09:08.700Z,95
2018-04-14T08:10:30.811Z,95
2018-04-14T08:11:53.079Z,120
2018-04-14T08:13:14.691Z,165
2018-04-14T08:14:36.800Z,165
2018-04-14T08:15:58.624Z,145
2018-04-14T08:17:20.715Z,150
2018-04-14T08:18:42.589Z,165
2018-04-14T08:20:04.702Z,160
2018-04-14T08:21:26.540Z,140
2018-04-14T08:22:48.391Z,130
2018-04-14T08:24:10.478Z,120
2018-04-14T08:25:32.542Z,135
2018-04-14T08:26:54.367Z,125
2018-04-14T08:28:16.178Z,115
2018-04-14T08:29:38.269Z,125
2018-04-14T08:31:00.327Z,125
2018-04-14T08:32:22.418Z,125
2018-04-14T08:33:43.961Z,135
2018-04-14T08:35:06.042Z,125
2018-04-14T08:36:28.108Z,130
2018-04-14T08:37:49.405Z,120
2018-04-14T08:39:11.215Z,110
2018-04-14T08:40:33.040Z,115
2018-04-14T08:41:54.584Z,125
2018-04-14T08:43:16.690Z,130
2018-04-14T08:44:38.761Z,145
2018-04-14T08:46:00.304Z,220
2018-04-14T08:47:22.420Z,210
2018-04-14T08:48:49.225Z,160
2018-04-14T08:50:11.355Z,120
2018-04-14T08:51:33.189Z,115
2018-04-14T08:52:55.014Z,115
2018-04-14T08:54:17.184Z,120
2018-04-14T08:55:39.011Z,140
2018-04-14T08:57:01.083Z,200
2018-04-14T08:58:22.915Z,195
2018-04-14T08:59:44.743Z,185
2018-04-14T09:01:06.303Z,160
2018-04-14T09:02:27.878Z,180
2018-04-14T09:03:49.691Z,175
2018-04-14T09:05:11.782Z,155
2018-04-14T09:06:33.328Z,205
2018-04-14T09:07:55.179Z,180
2018-04-14T09:09:16.474Z,195
2018-04-14T09:10:38.558Z,175
2018-04-14T09:12:00.384Z,140
2018-04-14T09:13:22.486Z,135
2018-04-14T09:14:44.079Z,120
2018-04-14T09:16:06.194Z,140
2018-04-14T09:17:28.300Z,185
2018-04-14T09:18:50.391Z,185
2018-04-14T09:20:12.472Z,170
2018-04-14T09:21:34.036Z,165
2018-04-14T09:22:56.107Z,180
2018-04-14T09:24:18.201Z,180
2018-04-14T09:25:40.301Z,170
2018-04-14T09:27:02.386Z,170
2018-04-14T09:28:24.483Z,180
2018-04-14T09:29:46.294Z,195
2018-04-14T09:31:08.353Z,185
2018-04-14T09:32:30.160Z,155
2018-04-14T09:33:52.023Z,150
2018-04-14T09:35:13.862Z,160
2018-04-14T09:36:35.968Z,180
2018-04-14T09:37:57.784Z,180
2018-04-14T09:39:19.359Z,220
2018-04-14T09:40:41.185Z,230
2018-04-14T09:42:03.036Z,235
2018-04-14T09:43:25.109Z,325
2018-04-14T09:44:47.220Z,315
2018-04-14T09:46:09.288Z,325
2018-04-14T09:47:31.105Z,285
2018-04-14T09:48:53.176Z,220
2018-04-14T09:50:15.316Z,225
2018-04-14T09:51:37.403Z,175
2018-04-14T09:52:59.520Z,135
2018-04-14T09:54:21.632Z,125
2018-04-14T09:55:43.199Z,135
2018-04-14T09:57:04.749Z,125
2018-04-14T09:58:26.844Z,145
2018-04-14T09:59:48.665Z,145
2018-04-14T10:01:10.468Z,155
2018-04-14T10:02:32.559Z,170
2018-04-14T10:03:54.653Z,165
2018-04-14T10:05:16.749Z,155
2018-04-14T10:06:38.309Z,145
2018-04-14T10:07:59.864Z,215
2018-04-14T10:09:21.668Z,180
2018-04-14T10:10:43.953Z,185
2018-04-14T10:12:06.030Z,200
2018-04-14T10:13:28.132Z,225
2018-04-14T10:14:49.433Z,225
2018-04-14T10:16:10.996Z,200
2018-04-14T10:17:32.818Z,215
2018-04-14T10:18:54.910Z,210
2018-04-14T10:20:17.000Z,225
2018-04-14T10:21:38.805Z,235
2018-04-14T10:23:00.891Z,245
2018-04-14T10:24:22.957Z,240
2018-04-14T10:25:44.807Z,220
2018-04-14T10:27:06.695Z,200
2018-04-14T10:28:28.865Z,210
2018-04-14T10:29:50.681Z,235
2018-04-14T10:31:12.504Z,240
2018-04-14T10:32:34.687Z,215
2018-04-14T10:33:56.768Z,205
2018-04-14T10:35:18.605Z,195
2018-04-14T10:36:40.435Z,210
2018-04-14T10:38:02.717Z,240
2018-04-14T10:39:24.821Z,265
2018-04-14T10:40:46.646Z,205
2018-04-14T10:42:08.468Z,230
2018-04-14T10:43:30.557Z,240
2018-04-14T10:44:52.680Z,195
2018-04-14T10:46:14.508Z,230
2018-04-14T10:47:36.349Z,245
2018-04-14T10:48:58.172Z,175
2018-04-14T10:50:20.275Z,155
2018-04-14T10:51:42.365Z,150
2018-04-14T10:53:04.222Z,160
2018-04-14T10:54:26.064Z,190
2018-04-14T10:55:48.270Z,165
2018-04-14T10:57:10.404Z,145
2018-04-14T10:58:32.244Z,125
2018-04-14T10:59:54.338Z,170
2018-04-14T11:01:16.443Z,200
2018-04-14T11:02:38.550Z,215
2018-04-14T11:04:00.768Z,220
2018-04-14T11:05:22.866Z,210
2018-04-14T11:06:44.955Z,215
2018-04-14T11:08:07.085Z,205
2018-04-14T11:09:29.208Z,225
2018-04-14T11:10:51.323Z,200
2018-04-14T11:12:13.156Z,200
2018-04-14T11:13:34.989Z,195
2018-04-14T11:14:57.083Z,225
2018-04-14T11:16:18.631Z,235
2018-04-14T11:17:40.457Z,280
2018-04-14T11:19:02.333Z,345
2018-04-14T11:20:24.456Z,345
2018-04-14T11:21:46.524Z,350
2018-04-14T11:23:08.394Z,345
2018-04-14T11:24:30.503Z,335
2018-04-14T11:25:52.614Z,340
2018-04-14T11:27:13.919Z,365
2018-04-14T11:28:36.038Z,355
2018-04-14T11:29:58.155Z,380
2018-04-14T11:31:20.414Z,380
2018-04-14T11:32:42.584Z,380
2018-04-14T11:34:04.688Z,380
2018-04-14T11:35:26.775Z,370
2018-04-14T11:36:48.595Z,375
2018-04-14T11:38:10.695Z,375
2018-04-14T11:39:32.526Z,380
2018-04-14T11:40:54.615Z,365
2018-04-14T11:42:15.923Z,305
2018-04-14T11:43:38.162Z,325
2018-04-14T11:45:00.270Z,350
2018-04-14T11:46:22.120Z,340
2018-04-14T11:47:43.424Z,330
2018-04-14T11:49:05.587Z,295
2018-04-14T11:50:27.687Z,265
2018-04-14T11:51:49.250Z,335
2018-04-14T11:53:11.085Z,350
2018-04-14T11:54:33.184Z,345
2018-04-14T11:55:55.031Z,390
2018-04-14T11:57:16.585Z,285
2018-04-14T11:58:38.692Z,270
2018-04-14T12:00:00.563Z,245
2018-04-14T12:01:22.701Z,225
2018-04-14T12:02:44.902Z,250
2018-04-14T12:04:07.186Z,205
2018-04-14T12:05:29.277Z,225
2018-04-14T12:06:51.160Z,230
2018-04-14T12:08:13.284Z,240
2018-04-14T12:09:35.131Z,210
2018-04-14T12:10:56.727Z,195
2018-04-14T12:12:18.839Z,200
2018-04-14T12:13:40.951Z,185
2018-04-14T12:15:02.789Z,190
2018-04-14T12:16:24.891Z,185
2018-04-14T12:17:46.968Z,185
2018-04-14T12:19:09.033Z,170
2018-04-14T12:20:30.846Z,190
2018-04-14T12:21:52.682Z,200
2018-04-14T12:23:14.824Z,255
2018-04-14T12:24:36.670Z,280
2018-04-14T12:25:58.780Z,225
2018-04-14T12:27:20.874Z,235
2018-04-14T12:28:43.023Z,285
2018-04-14T12:30:05.112Z,295
2018-04-14T12:31:26.940Z,235
2018-04-14T12:32:48.780Z,205
2018-04-14T12:34:10.858Z,190
2018-04-14T12:35:32.976Z,165
2018-04-14T12:36:55.078Z,150
2018-04-14T12:38:17.171Z,140
2018-04-14T12:39:39.022Z,150
2018-04-14T12:41:01.125Z,140
2018-04-14T12:42:23.230Z,170
2018-04-14T12:43:45.092Z,225
2018-04-14T12:45:06.921Z,240
2018-04-14T12:46:28.764Z,210
2018-04-14T12:47:50.052Z,210
2018-04-14T12:49:12.183Z,190
2018-04-14T12:50:34.001Z,240
2018-04-14T12:51:56.079Z,285
2018-04-14T12:53:18.172Z,230
2018-04-14T12:54:39.776Z,240
2018-04-14T12:56:01.878Z,330
2018-04-14T12:57:23.728Z,380
2018-04-14T12:58:45.798Z,375
2018-04-14T13:00:07.888Z,365
2018-04-14T13:01:30.052Z,335
2018-04-14T13:02:51.609Z,330
2018-04-14T13:04:13.437Z,470
2018-04-14T13:05:35.288Z,520
2018-04-14T13:06:57.119Z,495
2018-04-14T13:08:19.245Z,465
2018-04-14T13:09:41.339Z,425
2018-04-14T13:11:03.201Z,495
2018-04-14T13:12:25.035Z,550
2018-04-14T13:13:47.130Z,480
2018-04-14T13:15:08.728Z,455
2018-04-14T13:16:30.836Z,470
2018-04-14T13:17:52.667Z,445
2018-04-14T13:19:14.673Z,375
2018-04-14T13:20:36.508Z,330
2018-04-14T13:21:58.069Z,250
2018-04-14T13:23:20.177Z,265
2018-04-14T13:24:42.015Z,230
2018-04-14T13:26:04.121Z,220
2018-04-14T13:27:26.295Z,215
2018-04-14T13:28:47.930Z,175
2018-04-14T13:30:10.051Z,170
2018-04-14T13:31:32.275Z,165
2018-04-14T13:32:54.395Z,170
2018-04-14T13:34:15.986Z,155
2018-04-14T13:35:38.177Z,135
2018-04-14T13:37:00.074Z,145
2018-04-14T13:38:22.203Z,140
2018-04-14T13:39:43.802Z,145
2018-04-14T13:41:05.881Z,120
2018-04-14T13:42:27.726Z,100
2018-04-14T13:43:49.544Z,100
2018-04-14T13:45:11.392Z,105
2018-04-14T13:46:33.498Z,115
2018-04-14T13:47:55.345Z,100
2018-04-14T13:49:17.436Z,85
2018-04-14T13:50:39.056Z,85
2018-04-14T13:52:01.156Z,100
2018-04-14T13:53:23.277Z,100
2018-04-14T13:54:45.125Z,100
2018-04-14T13:56:07.245Z,105
2018-04-14T13:57:29.397Z,110
2018-04-14T13:58:50.955Z,125
2018-04-14T14:00:13.149Z,130
2018-04-14T14:01:34.939Z,115
2018-04-14T14:02:57.046Z,115
2018-04-14T14:04:19.174Z,115
2018-04-14T14:05:41.287Z,90
2018-04-14T14:07:04.322Z,80
2018-04-14T14:08:26.431Z,75
2018-04-14T14:09:48.020Z,80
2018-04-14T14:11:10.094Z,75
2018-04-14T14:12:32.289Z,80
2018-04-14T14:13:54.122Z,85
2018-04-14T14:15:16.201Z,85
2018-04-14T14:16:38.332Z,80
2018-04-14T14:17:59.910Z,75
2018-04-14T14:19:22.013Z,70
2018-04-14T14:20:43.863Z,70
2018-04-14T14:22:06.012Z,70
2018-04-14T14:23:27.839Z,75
2018-04-14T14:24:49.928Z,80
2018-04-14T14:26:12.045Z,75
2018-04-14T14:27:33.885Z,75
2018-04-14T14:28:55.965Z,80
2018-04-14T14:30:18.138Z,85
2018-04-14T14:31:39.966Z,100
2018-04-14T14:33:02.045Z,110
2018-04-14T14:34:24.167Z,120
2018-04-14T14:35:46.270Z,130
2018-04-14T14:37:08.408Z,130
2018-04-14T14:38:30.243Z,140
2018-04-14T14:39:52.318Z,160
2018-04-14T14:41:14.433Z,155
2018-04-14T14:42:36.679Z,130
2018-04-14T14:43:58.623Z,115
2018-04-14T14:45:20.470Z,115
2018-04-14T14:46:42.033Z,90
2018-04-14T14:48:03.876Z,80
2018-04-14T14:49:25.980Z,80
2018-04-14T14:50:47.289Z,85
2018-04-14T14:52:09.427Z,90
2018-04-14T14:53:31.540Z,85
2018-04-14T14:54:53.645Z,75
2018-04-14T14:56:15.817Z,90
2018-04-14T14:57:37.703Z,100
2018-04-14T14:58:59.263Z,105
2018-04-14T15:00:21.093Z,110
2018-04-14T15:01:43.184Z,125
2018-04-14T15:03:05.381Z,120
2018-04-14T15:04:27.231Z,110
2018-04-14T15:05:48.793Z,100
2018-04-14T15:07:10.934Z,110
2018-04-14T15:08:33.018Z,105
2018-04-14T15:09:54.880Z,110
2018-04-14T15:11:16.731Z,120
2018-04-14T15:12:38.573Z,120
2018-04-14T15:14:00.679Z,110
2018-04-14T15:15:22.784Z,105
2018-04-14T15:16:44.876Z,105
2018-04-14T15:18:06.958Z,100
2018-04-14T15:19:28.784Z,105
2018-04-14T15:20:50.610Z,95
2018-04-14T15:22:12.710Z,80
2018-04-14T15:23:34.566Z,75
2018-04-14T15:24:56.673Z,70
2018-04-14T15:26:18.784Z,70
2018-04-14T15:27:40.618Z,70
2018-04-14T15:29:02.469Z,75
2018-04-14T15:30:24.578Z,75
2018-04-14T15:31:46.141Z,90
2018-04-14T15:33:08.239Z,100
2018-04-14T15:34:30.129Z,105
2018-04-14T15:35:52.256Z,100
2018-04-14T15:37:14.355Z,95
2018-04-14T15:38:36.267Z,95
2018-04-14T15:39:58.366Z,100
2018-04-14T15:41:20.455Z,100
2018-04-14T15:42:42.563Z,105
2018-04-14T15:44:03.886Z,110
2018-04-14T15:45:25.462Z,110
2018-04-14T15:46:46.777Z,100
2018-04-14T15:48:08.072Z,90
2018-04-14T15:49:30.159Z,85
2018-04-14T15:50:52.237Z,85
2018-04-14T15:52:14.343Z,80
2018-04-14T15:53:36.431Z,70
2018-04-14T15:54:58.501Z,65
2018-04-14T15:56:20.621Z,60
2018-04-14T15:57:42.500Z,60
2018-04-14T15:59:04.307Z,55
2018-04-14T16:00:26.415Z,55
2018-04-14T16:01:48.248Z,55
2018-04-14T16:03:10.074Z,55
2018-04-14T16:04:31.772Z,60
2018-04-14T16:05:53.335Z,65
2018-04-14T16:07:15.452Z,65
2018-04-14T16:08:37.269Z,70
2018-04-14T16:09:59.379Z,75
2018-04-14T16:11:21.321Z,80
2018-04-14T16:12:42.622Z,80
2018-04-14T16:14:04.747Z,80
2018-04-14T16:15:26.935Z,80
2018-04-14T16:16:49.056Z,75
2018-04-14T16:18:11.171Z,75
2018-04-14T16:19:33.248Z,75
2018-04-14T16:20:55.342Z,75
2018-04-14T16:22:17.193Z,75
2018-04-14T16:23:39.356Z,75
2018-04-14T16:25:01.198Z,75
2018-04-14T16:26:23.288Z,75
2018-04-14T16:27:45.410Z,75
2018-04-14T16:29:06.983Z,75
2018-04-14T16:30:29.079Z,75
2018-04-14T16:31:51.149Z,75
2018-04-14T16:33:12.979Z,75
2018-04-14T16:34:34.827Z,75
2018-04-14T16:35:56.948Z,70
2018-04-14T16:37:19.075Z,70
2018-04-14T16:38:40.666Z,65
2018-04-14T16:40:02.491Z,60
2018-04-14T16:41:24.458Z,65
2018-04-14T16:42:46.555Z,60
2018-04-14T16:44:08.665Z,55
2018-04-14T16:45:30.765Z,55
2018-04-14T16:46:52.608Z,55
2018-04-14T16:48:14.721Z,55
2018-04-14T16:49:36.707Z,50
2018-04-14T16:50:58.799Z,50
2018-04-14T16:52:20.633Z,50
2018-04-14T16:53:42.462Z,50
2018-04-14T16:55:04.341Z,50
2018-04-14T16:56:26.480Z,50
2018-04-14T16:57:48.303Z,55
2018-04-14T16:59:09.870Z,55
2018-04-14T17:00:31.740Z,55
2018-04-14T17:01:53.834Z,50
2018-04-14T17:03:15.420Z,50
2018-04-14T17:04:37.288Z,45
2018-04-14T17:05:59.408Z,45
2018-04-14T17:07:21.278Z,45
2018-04-14T17:08:43.394Z,45
2018-04-14T17:10:05.500Z,45
2018-04-14T17:11:27.726Z,45
2018-04-14T17:12:49.612Z,45
2018-04-14T17:14:11.739Z,45
2018-04-14T17:15:33.838Z,45
2018-04-14T17:16:55.943Z,45
2018-04-14T17:18:18.072Z,45
2018-04-14T17:19:40.180Z,45
2018-04-14T17:21:02.270Z,45
2018-04-14T17:22:24.398Z,40
2018-04-14T17:23:45.977Z,40
2018-04-14T17:25:08.090Z,35
2018-04-14T17:26:30.241Z,35
2018-04-14T17:27:52.128Z,35
2018-04-14T17:29:13.983Z,35
2018-04-14T17:30:35.880Z,35
2018-04-14T17:31:57.718Z,35
2018-04-14T17:33:19.545Z,35
2018-04-14T17:34:41.669Z,35
2018-04-14T17:36:03.540Z,35
2018-04-14T17:37:25.678Z,35
2018-04-14T17:38:47.544Z,30
2018-04-14T17:40:09.379Z,30
2018-04-14T17:41:31.510Z,30
2018-04-14T17:42:53.646Z,30
2018-04-14T17:44:14.958Z,30
2018-04-14T17:45:36.836Z,25
2018-04-14T17:46:58.940Z,25
2018-04-14T17:48:20.769Z,25
2018-04-14T17:49:42.622Z,25
2018-04-14T17:51:04.469Z,20
2018-04-14T17:52:26.300Z,20
2018-04-14T17:53:47.881Z,20
2018-04-14T17:55:09.768Z,15
2018-04-14T17:56:32.053Z,15
2018-04-14T17:57:54.205Z,10
2018-04-14T17:59:16.342Z,10
2018-04-14T18:00:38.243Z,10
2018-04-14T18:02:00.339Z,5
2018-04-14T18:03:22.461Z,5
2018-04-14T18:04:44.574Z,5
2018-04-14T18:06:06.154Z,5
2018-04-14T18:07:28.277Z,5
2018-04-14T18:08:50.106Z,5
2018-04-14T18:10:11.948Z,5
2018-04-14T18:11:33.800Z,5
2018-04-14T18:12:55.675Z,5
2018-04-14T18:14:17.518Z,5
2018-04-14T18:15:39.691Z,0
2018-04-14T18:17:01.571Z,0
2018-04-14T18:18:23.414Z,0
2018-04-14T18:19:45.533Z,0
2018-04-14T18:21:07.662Z,0
2018-04-14T18:22:29.813Z,0
2018-04-14T18:23:51.945Z,0
2018-04-14T18:25:14.073Z,0
2018-04-14T18:26:36.212Z,0
2018-04-14T18:27:58.112Z,0
2018-04-14T18:29:20.221Z,0
2018-04-14T18:30:42.349Z,0
2018-04-14T18:32:04.489Z,0
2018-04-14T18:33:26.625Z,0
2018-04-14T18:34:48.786Z,0
2018-04-14T18:36:10.666Z,0
2018-04-14T18:37:32.800Z,0
2018-04-14T18:38:54.693Z,0
2018-04-14T18:40:16.281Z,0
2018-04-14T18:41:38.421Z,0
2018-04-14T18:43:00.316Z,0
2018-04-14T18:44:22.464Z,0
2018-04-14T18:45:44.400Z,0
2018-04-14T18:47:06.634Z,0
2018-04-14T18:48:28.926Z,0
2018-04-14T18:49:51.235Z,0
2018-04-14T18:51:13.227Z,0
2018-04-14T18:52:35.556Z,0
2018-04-14T18:53:57.783Z,0
2018-04-14T18:55:19.977Z,0
2018-04-14T18:56:42.237Z,0
2018-04-14T18:58:04.146Z,0
2018-04-14T18:59:26.336Z,0
2018-04-14T19:00:48.718Z,0
2018-04-14T19:02:11.145Z,0
2018-04-14T19:03:33.030Z,0
2018-04-14T19:04:54.991Z,0
2018-04-14T19:06:17.153Z,0
2018-04-14T19:07:39.020Z,0
2018-04-14T19:09:00.966Z,0
2018-04-14T19:10:22.888Z,0
2018-04-14T19:11:45.169Z,0
2018-04-14T19:13:07.315Z,0
2018-04-14T19:14:29.524Z,0
2018-04-14T19:15:51.765Z,0
2018-04-14T19:17:13.715Z,0
2018-04-14T19:18:35.898Z,0
2018-04-14T19:19:57.710Z,0
2018-04-14T19:21:19.769Z,0
2018-04-14T19:22:42.028Z,0
2018-04-14T19:24:03.945Z,0
2018-04-14T19:25:26.195Z,0
2018-04-14T19:26:48.440Z,0